sensor_id;sensor_type;location;lat;lon;timestamp;temperature;humidity
73133;DHT22;61320;52.008;4.530;2023-06-14T00:01:46;21.14;54.06
73133;DHT22;61320;52.008;4.530;2023-06-14T00:04:13;21.07;54.23
73133;DHT22;61320;52.008;4.530;2023-06-14T00:06:39;21.05;54.25
73133;DHT22;61320;52.008;4.530;2023-06-14T00:09:05;21.07;53.83
73133;DHT22;61320;52.008;4.530;2023-06-14T00:11:31;21.03;54.34
73133;DHT22;61320;52.008;4.530;2023-06-14T00:13:57;21.00;54.44
73133;DHT22;61320;52.008;4.530;2023-06-14T00:16:22;20.97;54.61
73133;DHT22;61320;52.008;4.530;2023-06-14T00:18:48;20.94;54.38
73133;DHT22;61320;52.008;4.530;2023-06-14T00:21:14;20.93;54.91
73133;DHT22;61320;52.008;4.530;2023-06-14T00:23:39;20.83;54.91
73133;DHT22;61320;52.008;4.530;2023-06-14T00:26:05;20.77;54.93
73133;DHT22;61320;52.008;4.530;2023-06-14T00:28:30;20.76;55.65
73133;DHT22;61320;52.008;4.530;2023-06-14T00:30:56;20.73;55.68
73133;DHT22;61320;52.008;4.530;2023-06-14T00:33:21;20.64;55.84
73133;DHT22;61320;52.008;4.530;2023-06-14T00:35:47;20.60;56.05
73133;DHT22;61320;52.008;4.530;2023-06-14T00:38:12;20.57;56.41
73133;DHT22;61320;52.008;4.530;2023-06-14T00:40:38;20.53;56.41
73133;DHT22;61320;52.008;4.530;2023-06-14T00:43:04;20.49;56.71
73133;DHT22;61320;52.008;4.530;2023-06-14T00:45:29;20.45;57.09
73133;DHT22;61320;52.008;4.530;2023-06-14T00:47:57;20.43;56.89
73133;DHT22;61320;52.008;4.530;2023-06-14T00:50:23;20.42;57.02
73133;DHT22;61320;52.008;4.530;2023-06-14T00:52:49;20.37;57.15
73133;DHT22;61320;52.008;4.530;2023-06-14T00:55:15;20.32;57.31
73133;DHT22;61320;52.008;4.530;2023-06-14T00:57:41;20.29;57.58
73133;DHT22;61320;52.008;4.530;2023-06-14T01:00:07;20.26;57.70
73133;DHT22;61320;52.008;4.530;2023-06-14T01:02:38;20.21;57.68
73133;DHT22;61320;52.008;4.530;2023-06-14T01:05:06;20.16;57.50
73133;DHT22;61320;52.008;4.530;2023-06-14T01:10:36;20.08;57.56
73133;DHT22;61320;52.008;4.530;2023-06-14T01:15:36;19.99;57.83
73133;DHT22;61320;52.008;4.530;2023-06-14T01:18:03;19.95;57.95
73133;DHT22;61320;52.008;4.530;2023-06-14T01:20:32;19.91;57.99
73133;DHT22;61320;52.008;4.530;2023-06-14T01:22:58;19.88;57.59
73133;DHT22;61320;52.008;4.530;2023-06-14T01:25:24;19.87;57.52
73133;DHT22;61320;52.008;4.530;2023-06-14T01:27:53;19.79;57.65
73133;DHT22;61320;52.008;4.530;2023-06-14T01:30:23;19.79;57.74
73133;DHT22;61320;52.008;4.530;2023-06-14T01:32:52;19.74;57.46
73133;DHT22;61320;52.008;4.530;2023-06-14T01:35:18;19.68;57.58
73133;DHT22;61320;52.008;4.530;2023-06-14T01:37:47;19.67;57.29
73133;DHT22;61320;52.008;4.530;2023-06-14T01:40:14;19.63;57.27
73133;DHT22;61320;52.008;4.530;2023-06-14T01:42:42;19.60;57.40
73133;DHT22;61320;52.008;4.530;2023-06-14T01:45:09;19.58;57.50
73133;DHT22;61320;52.008;4.530;2023-06-14T01:47:36;19.56;57.83
73133;DHT22;61320;52.008;4.530;2023-06-14T01:50:03;19.53;57.22
73133;DHT22;61320;52.008;4.530;2023-06-14T01:52:29;19.47;57.57
73133;DHT22;61320;52.008;4.530;2023-06-14T01:54:54;19.47;57.54
73133;DHT22;61320;52.008;4.530;2023-06-14T01:57:21;19.40;57.49
73133;DHT22;61320;52.008;4.530;2023-06-14T01:59:47;19.40;57.56
73133;DHT22;61320;52.008;4.530;2023-06-14T02:02:14;19.34;57.29
73133;DHT22;61320;52.008;4.530;2023-06-14T02:04:41;19.31;57.41
73133;DHT22;61320;52.008;4.530;2023-06-14T02:07:07;19.26;57.31
73133;DHT22;61320;52.008;4.530;2023-06-14T02:09:33;19.24;57.54
73133;DHT22;61320;52.008;4.530;2023-06-14T02:11:59;19.20;56.75
73133;DHT22;61320;52.008;4.530;2023-06-14T02:14:24;19.12;56.63
73133;DHT22;61320;52.008;4.530;2023-06-14T02:16:50;19.08;56.51
73133;DHT22;61320;52.008;4.530;2023-06-14T02:19:17;19.08;56.53
73133;DHT22;61320;52.008;4.530;2023-06-14T02:21:43;19.02;56.76
73133;DHT22;61320;52.008;4.530;2023-06-14T02:24:09;18.99;56.31
73133;DHT22;61320;52.008;4.530;2023-06-14T02:26:35;19.02;56.34
73133;DHT22;61320;52.008;4.530;2023-06-14T02:29:03;18.98;56.55
73133;DHT22;61320;52.008;4.530;2023-06-14T02:31:29;18.94;56.56
73133;DHT22;61320;52.008;4.530;2023-06-14T02:33:55;18.92;56.60
73133;DHT22;61320;52.008;4.530;2023-06-14T02:36:20;18.89;56.58
73133;DHT22;61320;52.008;4.530;2023-06-14T02:38:45;18.87;56.64
73133;DHT22;61320;52.008;4.530;2023-06-14T02:41:12;18.84;57.05
73133;DHT22;61320;52.008;4.530;2023-06-14T02:43:37;18.84;56.58
73133;DHT22;61320;52.008;4.530;2023-06-14T02:46:03;18.79;56.59
73133;DHT22;61320;52.008;4.530;2023-06-14T02:48:29;18.78;56.70
73133;DHT22;61320;52.008;4.530;2023-06-14T02:50:55;18.73;57.04
73133;DHT22;61320;52.008;4.530;2023-06-14T02:53:21;18.68;56.56
73133;DHT22;61320;52.008;4.530;2023-06-14T02:55:47;18.69;56.27
73133;DHT22;61320;52.008;4.530;2023-06-14T02:58:14;18.68;56.69
73133;DHT22;61320;52.008;4.530;2023-06-14T03:00:39;18.65;56.96
73133;DHT22;61320;52.008;4.530;2023-06-14T03:03:07;18.64;56.82
73133;DHT22;61320;52.008;4.530;2023-06-14T03:05:44;18.62;56.60
73133;DHT22;61320;52.008;4.530;2023-06-14T03:08:16;18.57;56.50
73133;DHT22;61320;52.008;4.530;2023-06-14T03:10:47;18.57;56.66
73133;DHT22;61320;52.008;4.530;2023-06-14T03:13:14;18.54;56.59
73133;DHT22;61320;52.008;4.530;2023-06-14T03:15:39;18.54;57.01
73133;DHT22;61320;52.008;4.530;2023-06-14T03:18:10;18.48;57.02
73133;DHT22;61320;52.008;4.530;2023-06-14T03:20:37;18.48;56.93
73133;DHT22;61320;52.008;4.530;2023-06-14T03:23:03;18.44;57.00
73133;DHT22;61320;52.008;4.530;2023-06-14T03:25:30;18.44;57.33
73133;DHT22;61320;52.008;4.530;2023-06-14T03:27:56;18.41;57.60
73133;DHT22;61320;52.008;4.530;2023-06-14T03:30:22;18.38;57.74
73133;DHT22;61320;52.008;4.530;2023-06-14T03:32:47;18.37;57.51
73133;DHT22;61320;52.008;4.530;2023-06-14T03:35:13;18.34;57.57
73133;DHT22;61320;52.008;4.530;2023-06-14T03:37:45;18.33;57.56
73133;DHT22;61320;52.008;4.530;2023-06-14T03:40:12;18.31;57.82
73133;DHT22;61320;52.008;4.530;2023-06-14T03:42:39;18.30;57.77
73133;DHT22;61320;52.008;4.530;2023-06-14T03:45:06;18.26;58.02
73133;DHT22;61320;52.008;4.530;2023-06-14T03:47:32;18.26;58.09
73133;DHT22;61320;52.008;4.530;2023-06-14T03:49:57;18.26;58.43
73133;DHT22;61320;52.008;4.530;2023-06-14T03:52:23;18.26;58.37
73133;DHT22;61320;52.008;4.530;2023-06-14T04:02:07;18.23;58.57
73133;DHT22;61320;52.008;4.530;2023-06-14T04:04:35;18.21;58.65
73133;DHT22;61320;52.008;4.530;2023-06-14T04:07:01;18.18;58.50
73133;DHT22;61320;52.008;4.530;2023-06-14T04:09:29;18.17;58.50
73133;DHT22;61320;52.008;4.530;2023-06-14T04:11:55;18.20;58.75
73133;DHT22;61320;52.008;4.530;2023-06-14T04:14:22;18.17;58.61
73133;DHT22;61320;52.008;4.530;2023-06-14T04:16:48;18.14;58.69
73133;DHT22;61320;52.008;4.530;2023-06-14T04:19:15;18.16;58.66
73133;DHT22;61320;52.008;4.530;2023-06-14T04:21:40;18.17;58.82
73133;DHT22;61320;52.008;4.530;2023-06-14T04:33:55;18.27;58.64
73133;DHT22;61320;52.008;4.530;2023-06-14T04:36:21;18.33;58.39
73133;DHT22;61320;52.008;4.530;2023-06-14T04:38:47;18.36;58.23
73133;DHT22;61320;52.008;4.530;2023-06-14T04:41:14;18.37;58.77
73133;DHT22;61320;52.008;4.530;2023-06-14T04:43:41;18.43;58.12
73133;DHT22;61320;52.008;4.530;2023-06-14T04:46:08;18.43;58.07
73133;DHT22;61320;52.008;4.530;2023-06-14T04:48:40;18.44;58.13
73133;DHT22;61320;52.008;4.530;2023-06-14T04:51:07;18.50;57.83
73133;DHT22;61320;52.008;4.530;2023-06-14T04:53:32;18.52;57.87
73133;DHT22;61320;52.008;4.530;2023-06-14T04:55:59;18.55;58.23
73133;DHT22;61320;52.008;4.530;2023-06-14T04:58:26;18.58;58.37
73133;DHT22;61320;52.008;4.530;2023-06-14T05:00:54;18.62;58.34
73133;DHT22;61320;52.008;4.530;2023-06-14T05:03:25;18.65;58.48
73133;DHT22;61320;52.008;4.530;2023-06-14T05:05:50;18.67;58.13
73133;DHT22;61320;52.008;4.530;2023-06-14T05:08:19;18.71;58.32
73133;DHT22;61320;52.008;4.530;2023-06-14T05:10:45;18.73;57.83
73133;DHT22;61320;52.008;4.530;2023-06-14T05:13:10;18.76;58.25
73133;DHT22;61320;52.008;4.530;2023-06-14T05:15:36;18.79;58.01
73133;DHT22;61320;52.008;4.530;2023-06-14T05:18:02;18.84;57.85
73133;DHT22;61320;52.008;4.530;2023-06-14T05:20:28;18.85;57.90
73133;DHT22;61320;52.008;4.530;2023-06-14T05:22:54;18.88;57.85
73133;DHT22;61320;52.008;4.530;2023-06-14T05:25:20;18.96;57.51
73133;DHT22;61320;52.008;4.530;2023-06-14T05:27:46;19.02;57.23
73133;DHT22;61320;52.008;4.530;2023-06-14T05:30:13;19.05;57.78
73133;DHT22;61320;52.008;4.530;2023-06-14T05:32:39;19.10;56.66
73133;DHT22;61320;52.008;4.530;2023-06-14T05:35:05;19.17;56.57
73133;DHT22;61320;52.008;4.530;2023-06-14T05:54:28;19.54;55.85
73133;DHT22;61320;52.008;4.530;2023-06-14T05:56:54;19.61;55.33
73133;DHT22;61320;52.008;4.530;2023-06-14T05:59:19;19.64;55.16
73133;DHT22;61320;52.008;4.530;2023-06-14T06:01:45;19.68;54.45
73133;DHT22;61320;52.008;4.530;2023-06-14T06:04:11;19.74;53.53
73133;DHT22;61320;52.008;4.530;2023-06-14T06:06:37;19.78;53.91
73133;DHT22;61320;52.008;4.530;2023-06-14T06:09:02;19.82;54.21
73133;DHT22;61320;52.008;4.530;2023-06-14T06:11:28;19.87;53.52
73133;DHT22;61320;52.008;4.530;2023-06-14T06:13:53;19.92;53.24
73133;DHT22;61320;52.008;4.530;2023-06-14T06:16:19;19.98;53.70
73133;DHT22;61320;52.008;4.530;2023-06-14T06:18:44;20.01;53.57
73133;DHT22;61320;52.008;4.530;2023-06-14T06:21:10;20.08;53.56
73133;DHT22;61320;52.008;4.530;2023-06-14T06:23:35;20.12;53.40
73133;DHT22;61320;52.008;4.530;2023-06-14T06:26:01;20.22;52.77
73133;DHT22;61320;52.008;4.530;2023-06-14T06:28:26;20.29;52.48
73133;DHT22;61320;52.008;4.530;2023-06-14T06:30:52;20.33;52.78
73133;DHT22;61320;52.008;4.530;2023-06-14T06:33:18;20.43;53.01
73133;DHT22;61320;52.008;4.530;2023-06-14T06:35:44;20.52;53.51
73133;DHT22;61320;52.008;4.530;2023-06-14T06:38:09;20.57;52.43
73133;DHT22;61320;52.008;4.530;2023-06-14T06:40:35;20.64;51.71
73133;DHT22;61320;52.008;4.530;2023-06-14T06:43:02;20.67;52.27
73133;DHT22;61320;52.008;4.530;2023-06-14T06:45:28;20.72;51.49
73133;DHT22;61320;52.008;4.530;2023-06-14T06:47:54;20.81;51.54
73133;DHT22;61320;52.008;4.530;2023-06-14T06:50:21;20.88;51.56
73133;DHT22;61320;52.008;4.530;2023-06-14T06:52:48;20.94;51.62
73133;DHT22;61320;52.008;4.530;2023-06-14T06:55:14;21.03;51.73
73133;DHT22;61320;52.008;4.530;2023-06-14T06:57:39;21.10;51.77
73133;DHT22;61320;52.008;4.530;2023-06-14T07:00:06;21.17;50.87
73133;DHT22;61320;52.008;4.530;2023-06-14T07:02:34;21.24;50.85
73133;DHT22;61320;52.008;4.530;2023-06-14T07:05:00;21.35;51.61
73133;DHT22;61320;52.008;4.530;2023-06-14T07:07:25;21.42;51.50
73133;DHT22;61320;52.008;4.530;2023-06-14T07:09:51;21.48;52.00
73133;DHT22;61320;52.008;4.530;2023-06-14T07:12:17;21.58;51.05
73133;DHT22;61320;52.008;4.530;2023-06-14T07:14:43;21.62;51.56
73133;DHT22;61320;52.008;4.530;2023-06-14T07:17:09;21.69;51.22
73133;DHT22;61320;52.008;4.530;2023-06-14T07:19:34;21.76;50.70
73133;DHT22;61320;52.008;4.530;2023-06-14T07:22:00;21.82;49.58
73133;DHT22;61320;52.008;4.530;2023-06-14T07:24:26;21.90;49.22
73133;DHT22;61320;52.008;4.530;2023-06-14T07:26:53;21.97;49.07
73133;DHT22;61320;52.008;4.530;2023-06-14T07:29:20;22.06;49.69
73133;DHT22;61320;52.008;4.530;2023-06-14T07:31:46;22.10;48.66
73133;DHT22;61320;52.008;4.530;2023-06-14T07:34:12;22.23;49.44
73133;DHT22;61320;52.008;4.530;2023-06-14T07:36:37;22.30;48.22
73133;DHT22;61320;52.008;4.530;2023-06-14T07:39:03;22.40;49.06
73133;DHT22;61320;52.008;4.530;2023-06-14T07:41:31;22.50;47.95
73133;DHT22;61320;52.008;4.530;2023-06-14T07:43:56;22.58;47.49
73133;DHT22;61320;52.008;4.530;2023-06-14T07:46:22;22.68;47.90
73133;DHT22;61320;52.008;4.530;2023-06-14T07:48:47;22.76;46.94
73133;DHT22;61320;52.008;4.530;2023-06-14T07:51:13;22.84;46.82
73133;DHT22;61320;52.008;4.530;2023-06-14T07:53:39;22.94;47.01
73133;DHT22;61320;52.008;4.530;2023-06-14T07:56:06;23.00;46.17
73133;DHT22;61320;52.008;4.530;2023-06-14T07:58:31;23.06;47.09
73133;DHT22;61320;52.008;4.530;2023-06-14T08:00:57;23.13;47.59
73133;DHT22;61320;52.008;4.530;2023-06-14T08:03:22;23.24;48.18
73133;DHT22;61320;52.008;4.530;2023-06-14T08:05:48;23.29;45.58
73133;DHT22;61320;52.008;4.530;2023-06-14T08:08:14;23.31;45.43
73133;DHT22;61320;52.008;4.530;2023-06-14T08:10:39;23.39;44.04
73133;DHT22;61320;52.008;4.530;2023-06-14T08:13:05;23.47;45.12
73133;DHT22;61320;52.008;4.530;2023-06-14T08:15:31;23.51;44.07
73133;DHT22;61320;52.008;4.530;2023-06-14T08:17:56;23.56;43.34
73133;DHT22;61320;52.008;4.530;2023-06-14T08:20:23;23.67;44.29
73133;DHT22;61320;52.008;4.530;2023-06-14T08:22:49;23.73;43.76
73133;DHT22;61320;52.008;4.530;2023-06-14T08:25:17;23.79;43.47
73133;DHT22;61320;52.008;4.530;2023-06-14T08:27:43;23.84;42.34
73133;DHT22;61320;52.008;4.530;2023-06-14T08:30:09;23.95;43.26
73133;DHT22;61320;52.008;4.530;2023-06-14T08:32:35;24.05;43.31
73133;DHT22;61320;52.008;4.530;2023-06-14T08:35:00;24.14;43.52
73133;DHT22;61320;52.008;4.530;2023-06-14T08:37:26;24.24;42.73
73133;DHT22;61320;52.008;4.530;2023-06-14T08:39:52;24.35;42.68
73133;DHT22;61320;52.008;4.530;2023-06-14T08:42:18;24.37;42.29
73133;DHT22;61320;52.008;4.530;2023-06-14T08:44:46;24.45;41.44
73133;DHT22;61320;52.008;4.530;2023-06-14T08:47:12;24.53;42.46
73133;DHT22;61320;52.008;4.530;2023-06-14T08:49:41;24.63;42.28
73133;DHT22;61320;52.008;4.530;2023-06-14T08:52:10;24.69;41.85
73133;DHT22;61320;52.008;4.530;2023-06-14T08:54:38;24.74;41.63
73133;DHT22;61320;52.008;4.530;2023-06-14T08:57:11;24.84;40.37
73133;DHT22;61320;52.008;4.530;2023-06-14T08:59:46;24.95;39.82
73133;DHT22;61320;52.008;4.530;2023-06-14T09:02:15;25.03;40.82
73133;DHT22;61320;52.008;4.530;2023-06-14T09:04:43;25.10;40.43
73133;DHT22;61320;52.008;4.530;2023-06-14T09:07:10;25.13;40.33
73133;DHT22;61320;52.008;4.530;2023-06-14T09:09:40;25.23;40.17
73133;DHT22;61320;52.008;4.530;2023-06-14T09:12:15;25.31;40.85
73133;DHT22;61320;52.008;4.530;2023-06-14T09:14:41;25.37;39.00
73133;DHT22;61320;52.008;4.530;2023-06-14T09:17:08;25.44;38.67
73133;DHT22;61320;52.008;4.530;2023-06-14T09:22:00;25.49;39.03
73133;DHT22;61320;52.008;4.530;2023-06-14T09:24:25;25.52;38.17
73133;DHT22;61320;52.008;4.530;2023-06-14T09:26:51;25.63;38.05
73133;DHT22;61320;52.008;4.530;2023-06-14T09:29:18;25.71;38.04
73133;DHT22;61320;52.008;4.530;2023-06-14T09:31:46;25.71;37.07
73133;DHT22;61320;52.008;4.530;2023-06-14T09:34:12;25.78;37.94
73133;DHT22;61320;52.008;4.530;2023-06-14T09:36:40;25.85;37.41
73133;DHT22;61320;52.008;4.530;2023-06-14T09:39:08;25.92;37.52
73133;DHT22;61320;52.008;4.530;2023-06-14T09:41:38;26.02;36.70
73133;DHT22;61320;52.008;4.530;2023-06-14T09:44:05;26.12;38.03
73133;DHT22;61320;52.008;4.530;2023-06-14T09:46:31;26.19;36.15
73133;DHT22;61320;52.008;4.530;2023-06-14T09:49:00;26.26;36.90
73133;DHT22;61320;52.008;4.530;2023-06-14T09:51:27;26.34;37.08
73133;DHT22;61320;52.008;4.530;2023-06-14T09:53:56;26.39;36.93
73133;DHT22;61320;52.008;4.530;2023-06-14T09:56:27;26.51;36.32
73133;DHT22;61320;52.008;4.530;2023-06-14T09:58:56;26.52;37.35
73133;DHT22;61320;52.008;4.530;2023-06-14T10:01:24;26.55;35.90
73133;DHT22;61320;52.008;4.530;2023-06-14T10:03:59;26.61;35.72
73133;DHT22;61320;52.008;4.530;2023-06-14T10:06:28;26.65;35.86
73133;DHT22;61320;52.008;4.530;2023-06-14T10:08:57;26.72;34.58
73133;DHT22;61320;52.008;4.530;2023-06-14T10:11:28;26.77;35.05
73133;DHT22;61320;52.008;4.530;2023-06-14T10:13:55;26.74;34.53
73133;DHT22;61320;52.008;4.530;2023-06-14T10:19:28;26.81;32.88
73133;DHT22;61320;52.008;4.530;2023-06-14T10:22:21;26.88;33.02
73133;DHT22;61320;52.008;4.530;2023-06-14T10:24:50;26.96;31.46
73133;DHT22;61320;52.008;4.530;2023-06-14T10:27:16;27.06;32.90
73133;DHT22;61320;52.008;4.530;2023-06-14T10:32:24;27.63;31.34
73133;DHT22;61320;52.008;4.530;2023-06-14T10:34:54;28.02;30.81
73133;DHT22;61320;52.008;4.530;2023-06-14T10:37:20;28.97;29.47
73133;DHT22;61320;52.008;4.530;2023-06-14T10:39:46;30.54;27.18
73133;DHT22;61320;52.008;4.530;2023-06-14T10:42:13;32.41;26.08
73133;DHT22;61320;52.008;4.530;2023-06-14T10:44:43;34.12;24.88
73133;DHT22;61320;52.008;4.530;2023-06-14T10:49:37;36.94;21.68
73133;DHT22;61320;52.008;4.530;2023-06-14T10:52:13;38.07;20.82
73133;DHT22;61320;52.008;4.530;2023-06-14T11:00:19;39.81;18.51
73133;DHT22;61320;52.008;4.530;2023-06-14T11:10:42;40.56;19.53
73133;DHT22;61320;52.008;4.530;2023-06-14T11:13:08;40.82;17.97
73133;DHT22;61320;52.008;4.530;2023-06-14T11:15:36;40.87;18.27
73133;DHT22;61320;52.008;4.530;2023-06-14T11:18:04;41.01;17.45
73133;DHT22;61320;52.008;4.530;2023-06-14T11:20:32;41.08;17.03
73133;DHT22;61320;52.008;4.530;2023-06-14T11:22:58;41.37;17.36
73133;DHT22;61320;52.008;4.530;2023-06-14T11:25:25;41.46;16.74
73133;DHT22;61320;52.008;4.530;2023-06-14T11:27:52;41.49;16.16
73133;DHT22;61320;52.008;4.530;2023-06-14T11:30:18;41.23;17.59
73133;DHT22;61320;52.008;4.530;2023-06-14T11:32:48;41.05;16.55
73133;DHT22;61320;52.008;4.530;2023-06-14T11:35:13;40.57;17.26
73133;DHT22;61320;52.008;4.530;2023-06-14T11:37:39;39.94;16.89
73133;DHT22;61320;52.008;4.530;2023-06-14T11:40:08;39.54;19.63
73133;DHT22;61320;52.008;4.530;2023-06-14T11:42:44;39.14;21.50
73133;DHT22;61320;52.008;4.530;2023-06-14T11:45:11;38.95;19.73
73133;DHT22;61320;52.008;4.530;2023-06-14T11:47:39;38.76;20.05
73133;DHT22;61320;52.008;4.530;2023-06-14T11:54:57;37.28;20.00
73133;DHT22;61320;52.008;4.530;2023-06-14T11:57:24;36.74;20.39
73133;DHT22;61320;52.008;4.530;2023-06-14T11:59:51;36.16;22.54
73133;DHT22;61320;52.008;4.530;2023-06-14T12:02:18;35.63;21.24
73133;DHT22;61320;52.008;4.530;2023-06-14T12:04:47;35.03;22.26
73133;DHT22;61320;52.008;4.530;2023-06-14T12:07:15;34.46;23.59
73133;DHT22;61320;52.008;4.530;2023-06-14T12:10:03;33.95;24.17
73133;DHT22;61320;52.008;4.530;2023-06-14T12:12:35;33.58;23.54
73133;DHT22;61320;52.008;4.530;2023-06-14T12:15:03;33.31;23.08
73133;DHT22;61320;52.008;4.530;2023-06-14T12:17:32;33.21;24.49
73133;DHT22;61320;52.008;4.530;2023-06-14T12:19:58;33.02;24.82
73133;DHT22;61320;52.008;4.530;2023-06-14T12:22:23;32.89;26.37
73133;DHT22;61320;52.008;4.530;2023-06-14T12:24:49;32.76;26.42
73133;DHT22;61320;52.008;4.530;2023-06-14T12:29:45;32.54;23.88
73133;DHT22;61320;52.008;4.530;2023-06-14T12:32:11;32.38;25.28
73133;DHT22;61320;52.008;4.530;2023-06-14T12:34:37;32.32;27.45
73133;DHT22;61320;52.008;4.530;2023-06-14T12:37:03;32.31;29.39
73133;DHT22;61320;52.008;4.530;2023-06-14T12:39:30;32.28;24.99
73133;DHT22;61320;52.008;4.530;2023-06-14T12:41:57;32.23;25.79
73133;DHT22;61320;52.008;4.530;2023-06-14T12:44:23;32.13;26.55
73133;DHT22;61320;52.008;4.530;2023-06-14T12:46:48;32.07;26.96
73133;DHT22;61320;52.008;4.530;2023-06-14T12:49:16;32.04;26.54
73133;DHT22;61320;52.008;4.530;2023-06-14T12:51:42;32.04;26.23
73133;DHT22;61320;52.008;4.530;2023-06-14T12:54:07;32.07;27.82
73133;DHT22;61320;52.008;4.530;2023-06-14T12:56:33;32.10;26.66
73133;DHT22;61320;52.008;4.530;2023-06-14T12:58:58;32.13;25.86
73133;DHT22;61320;52.008;4.530;2023-06-14T13:01:24;32.13;27.18
73133;DHT22;61320;52.008;4.530;2023-06-14T13:03:49;32.14;25.62
73133;DHT22;61320;52.008;4.530;2023-06-14T13:06:21;32.15;25.22
73133;DHT22;61320;52.008;4.530;2023-06-14T13:08:47;32.18;26.92
73133;DHT22;61320;52.008;4.530;2023-06-14T13:11:12;32.20;26.54
73133;DHT22;61320;52.008;4.530;2023-06-14T13:13:38;32.23;27.54
73133;DHT22;61320;52.008;4.530;2023-06-14T13:16:03;32.23;26.78
73133;DHT22;61320;52.008;4.530;2023-06-14T13:18:29;32.27;25.40
73133;DHT22;61320;52.008;4.530;2023-06-14T13:20:54;32.24;25.63
73133;DHT22;61320;52.008;4.530;2023-06-14T13:23:20;32.23;26.04
73133;DHT22;61320;52.008;4.530;2023-06-14T13:25:45;32.23;25.87
73133;DHT22;61320;52.008;4.530;2023-06-14T13:28:11;32.21;24.86
73133;DHT22;61320;52.008;4.530;2023-06-14T13:30:37;32.17;25.23
73133;DHT22;61320;52.008;4.530;2023-06-14T13:33:03;32.21;24.38
73133;DHT22;61320;52.008;4.530;2023-06-14T13:35:29;32.23;24.71
73133;DHT22;61320;52.008;4.530;2023-06-14T13:37:54;32.24;25.29
73133;DHT22;61320;52.008;4.530;2023-06-14T13:40:20;32.18;26.52
73133;DHT22;61320;52.008;4.530;2023-06-14T13:42:46;32.17;24.55
73133;DHT22;61320;52.008;4.530;2023-06-14T13:45:12;32.10;25.97
73133;DHT22;61320;52.008;4.530;2023-06-14T13:47:38;32.10;26.30
73133;DHT22;61320;52.008;4.530;2023-06-14T13:50:04;32.10;25.63
73133;DHT22;61320;52.008;4.530;2023-06-14T13:52:30;32.08;26.60
73133;DHT22;61320;52.008;4.530;2023-06-14T13:54:55;32.11;25.54
73133;DHT22;61320;52.008;4.530;2023-06-14T13:57:21;32.11;25.81
73133;DHT22;61320;52.008;4.530;2023-06-14T13:59:46;32.07;25.52
73133;DHT22;61320;52.008;4.530;2023-06-14T14:02:12;32.08;25.69
73133;DHT22;61320;52.008;4.530;2023-06-14T14:04:39;32.13;27.23
73133;DHT22;61320;52.008;4.530;2023-06-14T14:07:05;32.20;25.48
73133;DHT22;61320;52.008;4.530;2023-06-14T14:09:35;32.25;25.52
73133;DHT22;61320;52.008;4.530;2023-06-14T14:12:01;32.34;26.13
73133;DHT22;61320;52.008;4.530;2023-06-14T14:14:31;32.35;26.62
73133;DHT22;61320;52.008;4.530;2023-06-14T14:16:57;32.38;26.80
73133;DHT22;61320;52.008;4.530;2023-06-14T14:19:23;32.42;26.67
73133;DHT22;61320;52.008;4.530;2023-06-14T14:21:49;32.41;26.26
73133;DHT22;61320;52.008;4.530;2023-06-14T14:24:15;32.38;26.18
73133;DHT22;61320;52.008;4.530;2023-06-14T14:26:41;32.41;25.30
73133;DHT22;61320;52.008;4.530;2023-06-14T14:29:07;32.39;25.93
73133;DHT22;61320;52.008;4.530;2023-06-14T14:31:33;32.36;25.54
73133;DHT22;61320;52.008;4.530;2023-06-14T14:33:59;32.31;25.46
73133;DHT22;61320;52.008;4.530;2023-06-14T14:36:24;32.27;26.26
73133;DHT22;61320;52.008;4.530;2023-06-14T14:38:50;32.31;26.10
73133;DHT22;61320;52.008;4.530;2023-06-14T14:41:17;32.34;25.37
73133;DHT22;61320;52.008;4.530;2023-06-14T14:43:42;32.31;25.37
73133;DHT22;61320;52.008;4.530;2023-06-14T14:46:08;32.34;26.93
73133;DHT22;61320;52.008;4.530;2023-06-14T14:48:34;32.34;26.58
73133;DHT22;61320;52.008;4.530;2023-06-14T14:50:59;32.39;26.61
73133;DHT22;61320;52.008;4.530;2023-06-14T14:53:25;32.46;25.95
73133;DHT22;61320;52.008;4.530;2023-06-14T14:55:50;32.42;24.74
73133;DHT22;61320;52.008;4.530;2023-06-14T14:58:15;32.45;26.04
73133;DHT22;61320;52.008;4.530;2023-06-14T15:00:46;32.39;25.51
73133;DHT22;61320;52.008;4.530;2023-06-14T15:03:14;32.39;25.74
73133;DHT22;61320;52.008;4.530;2023-06-14T15:05:40;32.42;26.23
73133;DHT22;61320;52.008;4.530;2023-06-14T15:08:05;32.42;26.84
73133;DHT22;61320;52.008;4.530;2023-06-14T15:10:40;32.41;26.01
73133;DHT22;61320;52.008;4.530;2023-06-14T15:13:06;32.42;26.35
73133;DHT22;61320;52.008;4.530;2023-06-14T15:15:31;32.45;26.45
73133;DHT22;61320;52.008;4.530;2023-06-14T15:17:57;32.48;26.23
73133;DHT22;61320;52.008;4.530;2023-06-14T15:20:22;32.49;25.77
73133;DHT22;61320;52.008;4.530;2023-06-14T15:22:48;32.48;26.59
73133;DHT22;61320;52.008;4.530;2023-06-14T15:25:13;32.44;26.43
73133;DHT22;61320;52.008;4.530;2023-06-14T15:27:39;32.35;25.32
73133;DHT22;61320;52.008;4.530;2023-06-14T15:30:05;32.29;24.95
73133;DHT22;61320;52.008;4.530;2023-06-14T15:32:31;32.28;27.18
73133;DHT22;61320;52.008;4.530;2023-06-14T15:34:56;32.21;26.65
73133;DHT22;61320;52.008;4.530;2023-06-14T15:37:22;32.18;26.89
73133;DHT22;61320;52.008;4.530;2023-06-14T15:39:47;32.03;25.46
73133;DHT22;61320;52.008;4.530;2023-06-14T15:42:12;31.90;26.78
73133;DHT22;61320;52.008;4.530;2023-06-14T15:44:38;31.80;26.17
73133;DHT22;61320;52.008;4.530;2023-06-14T15:47:04;31.78;26.59
73133;DHT22;61320;52.008;4.530;2023-06-14T15:49:29;31.78;27.71
73133;DHT22;61320;52.008;4.530;2023-06-14T15:51:55;31.78;25.04
73133;DHT22;61320;52.008;4.530;2023-06-14T15:54:20;31.78;28.96
73133;DHT22;61320;52.008;4.530;2023-06-14T15:56:46;31.78;26.57
73133;DHT22;61320;52.008;4.530;2023-06-14T15:59:11;31.73;27.22
73133;DHT22;61320;52.008;4.530;2023-06-14T16:01:37;31.70;26.13
73133;DHT22;61320;52.008;4.530;2023-06-14T16:04:02;31.70;25.96
73133;DHT22;61320;52.008;4.530;2023-06-14T16:06:28;31.70;28.33
73133;DHT22;61320;52.008;4.530;2023-06-14T16:08:53;31.59;26.15
73133;DHT22;61320;52.008;4.530;2023-06-14T16:11:18;31.46;26.11
73133;DHT22;61320;52.008;4.530;2023-06-14T16:13:45;31.43;26.65
73133;DHT22;61320;52.008;4.530;2023-06-14T16:16:10;31.23;26.42
73133;DHT22;61320;52.008;4.530;2023-06-14T16:18:36;31.12;27.36
73133;DHT22;61320;52.008;4.530;2023-06-14T16:21:02;30.98;28.09
73133;DHT22;61320;52.008;4.530;2023-06-14T16:23:29;30.89;28.17
73133;DHT22;61320;52.008;4.530;2023-06-14T16:25:54;30.84;27.10
73133;DHT22;61320;52.008;4.530;2023-06-14T16:28:20;30.77;29.16
73133;DHT22;61320;52.008;4.530;2023-06-14T16:30:45;30.64;27.49
73133;DHT22;61320;52.008;4.530;2023-06-14T16:33:11;30.51;27.74
73133;DHT22;61320;52.008;4.530;2023-06-14T16:35:36;30.39;27.06
73133;DHT22;61320;52.008;4.530;2023-06-14T16:38:01;30.31;28.01